Time;durP1;ratioP1;P1;durP2;ratioP2;P2;SDS_P1;SDS_P2;PMS_P1;PMS_P2;Temp;Humidity;BMP_temperature;BMP_pressure;BME280_temperature;BME280_humidity;BME280_pressure;Samples;Min_cycle;Max_cycle;Signal;HPM_P1;HPM_P2
2023/05/07 00:02:07;;;;;;;;;;;;;;;;;;5055181;28;19908;-58
2023/05/07 00:04:36;;;;;;;;;;;;;;;;;;5054786;28;19920;-58
2023/05/07 00:07:02;;;;;;;;;;;;;;;;;;5054470;28;20335;-57
2023/05/07 00:09:28;;;;;;;;;;;;;;;;;;5055151;28;19951;-58
2023/05/07 00:11:54;;;;;;;;;;;;;;;;;;5054734;28;20004;-58
2023/05/07 00:14:20;;;;;;;;;;;;;;;;;;5063528;28;19925;-58
2023/05/07 00:16:46;;;;;;;;;;;;;;;;;;5062635;28;20284;-58
2023/05/07 00:19:12;;;;;;;;;;;;;;;;;;5055118;28;19909;-58
2023/05/07 00:21:38;;;;;;;;;;;;;;;;;;5054352;28;19946;-58
2023/05/07 00:24:04;;;;;;;;;;;;;;;;;;5055347;28;20377;-58
2023/05/07 00:26:30;;;;;;;;;;;;;;;;;;5054587;28;19919;-58
2023/05/07 00:28:56;;;;;;;;;;;;;;;;;;5054075;28;20276;-58
2023/05/07 00:31:22;;;;;;;;;;;;;;;;;;5054515;28;19913;-58
2023/05/07 00:33:47;;;;;;;;;;;;;;;;;;5053024;28;19944;-58
2023/05/07 00:36:13;;;;;;;;;;;;;;;;;;5062786;28;19921;-59
2023/05/07 00:38:39;;;;;;;;;;;;;;;;;;5071376;28;19966;-58
2023/05/07 00:41:05;;;;;;;;;;;;;;;;;;5054066;28;19955;-57
2023/05/07 00:43:32;;;;;;;;;;;;;;;;;;5060651;28;20007;-58
2023/05/07 00:45:57;;;;;;;;;;;;;;;;;;5074579;28;19994;-58
2023/05/07 00:48:24;;;;;;;;;;;;;;;;;;5074511;28;19952;-58
2023/05/07 00:50:50;;;;;;;;;;;;;;;;;;5061598;28;19913;-58
2023/05/07 00:53:16;;;;;;;;;;;;;;;;;;5053952;28;20320;-58
2023/05/07 00:55:42;;;;;;;;;;;;;;;;;;5054242;28;19956;-58
2023/05/07 00:58:07;;;;;;;;;;;;;;;;;;5057466;28;19943;-58
2023/05/07 01:00:33;;;;;;;;;;;;;;;;;;5072665;28;19938;-58
2023/05/07 01:02:59;;;;;;;;;;;;;;;;;;5050035;28;19971;-58
2023/05/07 01:05:25;;;;;;;;;;;;;;;;;;5051817;28;19913;-58
2023/05/07 01:07:51;;;;;;;;;;;;;;;;;;5054225;28;19915;-59
2023/05/07 01:10:17;;;;;;;;;;;;;;;;;;5053661;28;19905;-58
2023/05/07 01:12:43;;;;;;;;;;;;;;;;;;5054008;28;20348;-58
2023/05/07 01:15:09;;;;;;;;;;;;;;;;;;5054004;28;19964;-58
2023/05/07 01:17:35;;;;;;;;;;;;;;;;;;5054630;28;19952;-58
2023/05/07 01:20:01;;;;;;;;;;;;;;;;;;5067530;28;19943;-58
2023/05/07 01:22:27;;;;;;;;;;;;;;;;;;5053799;28;19909;-59
2023/05/07 01:24:53;;;;;;;;;;;;;;;;;;5051171;28;20585;-59
2023/05/07 01:27:19;;;;;;;;;;;;;;;;;;5053910;28;20287;-59
2023/05/07 01:29:45;;;;;;;;;;;;;;;;;;5050540;28;19949;-59
2023/05/07 01:32:11;;;;;;;;;;;;;;;;;;5055569;28;19996;-59
2023/05/07 01:34:37;;;;;;;;;;;;;;;;;;5073183;28;19912;-58
2023/05/07 01:37:03;;;;;;;;;;;;;;;;;;5073546;28;19909;-59
2023/05/07 01:39:29;;;;;;;;;;;;;;;;;;5068803;28;20395;-59
2023/05/07 01:41:55;;;;;;;;;;;;;;;;;;5052718;28;20015;-58
2023/05/07 01:44:21;;;;;;;;;;;;;;;;;;5053478;28;19939;-58
2023/05/07 01:46:47;;;;;;;;;;;;;;;;;;5052485;28;19960;-58
2023/05/07 01:49:13;;;;;;;;;;;;;;;;;;5053146;28;20288;-58
2023/05/07 01:51:39;;;;;;;;;;;;;;;;;;5052219;28;19974;-58
2023/05/07 01:54:05;;;;;;;;;;;;;;;;;;5052359;28;20040;-59
2023/05/07 01:56:31;;;;;;;;;;;;;;;;;;5051939;28;19913;-58
2023/05/07 01:58:56;;;;;;;;;;;;;;;;;;5053093;28;19964;-58
2023/05/07 02:01:23;;;;;;;;;;;;;;;;;;5052170;28;20328;-59
2023/05/07 02:03:49;;;;;;;;;;;;;;;;;;5051949;28;19913;-58
2023/05/07 02:06:15;;;;;;;;;;;;;;;;;;5053097;28;20011;-58
2023/05/07 02:08:40;;;;;;;;;;;;;;;;;;5062899;28;19952;-59
2023/05/07 02:11:06;;;;;;;;;;;;;;;;;;5072561;28;20347;-59
2023/05/07 02:13:32;;;;;;;;;;;;;;;;;;5063685;28;19967;-59
2023/05/07 02:15:58;;;;;;;;;;;;;;;;;;5051514;28;19916;-59
2023/05/07 02:18:24;;;;;;;;;;;;;;;;;;5052611;28;19971;-58
2023/05/07 02:20:50;;;;;;;;;;;;;;;;;;5052505;28;19909;-58
2023/05/07 02:23:16;;;;;;;;;;;;;;;;;;5051635;28;19974;-59
2023/05/07 02:25:42;;;;;;;;;;;;;;;;;;5062993;28;20015;-58
2023/05/07 02:28:08;;;;;;;;;;;;;;;;;;5052699;28;19913;-58
2023/05/07 02:30:34;;;;;;;;;;;;;;;;;;5051274;28;20384;-58
2023/05/07 02:33:00;;;;;;;;;;;;;;;;;;5053740;28;20047;-59
2023/05/07 02:35:26;;;;;;;;;;;;;;;;;;5052681;28;19991;-58
2023/05/07 02:37:51;;;;;;;;;;;;;;;;;;5050915;28;19908;-58
2023/05/07 02:40:17;;;;;;;;;;;;;;;;;;5058982;28;20387;-59
2023/05/07 02:42:43;;;;;;;;;;;;;;;;;;5044582;28;19913;-59
2023/05/07 02:45:09;;;;;;;;;;;;;;;;;;5038427;28;20422;-58
2023/05/07 02:47:35;;;;;;;;;;;;;;;;;;5051969;28;19909;-58
2023/05/07 02:50:01;;;;;;;;;;;;;;;;;;5051502;28;19938;-58
2023/05/07 02:52:27;;;;;;;;;;;;;;;;;;5052333;28;20407;-58
2023/05/07 02:54:53;;;;;;;;;;;;;;;;;;5052244;28;20011;-58
2023/05/07 02:57:19;;;;;;;;;;;;;;;;;;5058702;28;20311;-59
2023/05/07 02:59:45;;;;;;;;;;;;;;;;;;5066197;28;19920;-59
2023/05/07 03:02:11;;;;;;;;;;;;;;;;;;5067756;28;20324;-58
2023/05/07 03:04:37;;;;;;;;;;;;;;;;;;5050775;28;19925;-58
2023/05/07 03:07:03;;;;;;;;;;;;;;;;;;5052042;28;19952;-58
2023/05/07 03:09:28;;;;;;;;;;;;;;;;;;5052111;28;20015;-58
2023/05/07 03:11:55;;;;;;;;;;;;;;;;;;5051658;28;19919;-58
2023/05/07 03:14:21;;;;;;;;;;;;;;;;;;5054353;28;20000;-59
2023/05/07 03:16:47;;;;;;;;;;;;;;;;;;5051090;28;19922;-58
2023/05/07 03:19:13;;;;;;;;;;;;;;;;;;5052107;28;19912;-58
2023/05/07 03:21:39;;;;;;;;;;;;;;;;;;5050210;28;20304;-58
2023/05/07 03:24:05;;;;;;;;;;;;;;;;;;5052149;28;19909;-59
2023/05/07 03:26:31;;;;;;;;;;;;;;;;;;5051143;28;19966;-58
2023/05/07 03:28:57;;;;;;;;;;;;;;;;;;5055925;28;20644;-58
2023/05/07 03:31:23;;;;;;;;;;;;;;;;;;5059434;28;19919;-58
2023/05/07 03:33:48;;;;;;;;;;;;;;;;;;5076048;28;20300;-59
2023/05/07 03:36:14;;;;;;;;;;;;;;;;;;5075826;28;19966;-58
2023/05/07 03:38:40;;;;;;;;;;;;;;;;;;5064929;28;19913;-59
2023/05/07 03:41:06;;;;;;;;;;;;;;;;;;5057898;28;20368;-59
2023/05/07 03:43:32;;;;;;;;;;;;;;;;;;5063271;28;19974;-58
2023/05/07 03:45:58;;;;;;;;;;;;;;;;;;5055468;28;20020;-58
2023/05/07 03:48:24;;;;;;;;;;;;;;;;;;5055447;28;20011;-58
2023/05/07 03:50:50;;;;;;;;;;;;;;;;;;5054811;28;19954;-59
2023/05/07 03:53:16;;;;;;;;;;;;;;;;;;5055033;28;20374;-58
2023/05/07 03:55:42;;;;;;;;;;;;;;;;;;5054933;28;19930;-59
2023/05/07 03:58:08;;;;;;;;;;;;;;;;;;5074959;28;19917;-56
2023/05/07 04:00:37;;;;;;;;;;;;;;;;;;5073949;28;20002;-59
2023/05/07 04:03:04;;;;;;;;;;;;;;;;;;5058794;28;19920;-58
2023/05/07 04:05:30;;;;;;;;;;;;;;;;;;5054094;28;19913;-59
2023/05/07 04:07:56;;;;;;;;;;;;;;;;;;5054929;28;19921;-58
2023/05/07 04:10:22;;;;;;;;;;;;;;;;;;5054415;28;19991;-59
2023/05/07 04:12:47;;;;;;;;;;;;;;;;;;5055672;28;20696;-59
2023/05/07 04:15:13;;;;;;;;;;;;;;;;;;5053311;28;19956;-58
2023/05/07 04:17:41;;;;;;;;;;;;;;;;;;5066983;28;19948;-59
2023/05/07 04:20:07;;;;;;;;;;;;;;;;;;5070697;28;19912;-58
2023/05/07 04:22:33;;;;;;;;;;;;;;;;;;5054167;28;19919;-58
2023/05/07 04:24:59;;;;;;;;;;;;;;;;;;5054360;28;19939;-58
2023/05/07 04:27:25;;;;;;;;;;;;;;;;;;5052869;28;19995;-58
2023/05/07 04:29:51;;;;;;;;;;;;;;;;;;5055148;28;20381;-58
2023/05/07 04:32:17;;;;;;;;;;;;;;;;;;5054734;28;19956;-59
2023/05/07 04:34:43;;;;;;;;;;;;;;;;;;5054042;28;19951;-59
2023/05/07 04:37:09;;;;;;;;;;;;;;;;;;5054337;28;19913;-59
2023/05/07 04:39:35;;;;;;;;;;;;;;;;;;5054607;28;19920;-58
2023/05/07 04:42:01;;;;;;;;;;;;;;;;;;5057657;28;20400;-58
2023/05/07 04:44:27;;;;;;;;;;;;;;;;;;5053278;28;19954;-59
2023/05/07 04:46:52;;;;;;;;;;;;;;;;;;5053108;28;19951;-58
2023/05/07 04:49:18;;;;;;;;;;;;;;;;;;5054415;28;20365;-59
2023/05/07 04:51:44;;;;;;;;;;;;;;;;;;5054031;28;20004;-58
2023/05/07 04:54:10;;;;;;;;;;;;;;;;;;5053460;28;20276;-58
2023/05/07 04:56:36;;;;;;;;;;;;;;;;;;5066497;28;20005;-58
2023/05/07 04:59:02;;;;;;;;;;;;;;;;;;5068634;28;19909;-59
2023/05/07 05:01:28;;;;;;;;;;;;;;;;;;5051552;28;20055;-58
2023/05/07 05:03:54;;;;;;;;;;;;;;;;;;5051125;28;19936;-59
2023/05/07 05:06:20;;;;;;;;;;;;;;;;;;5054000;28;19940;-58
2023/05/07 05:08:46;;;;;;;;;;;;;;;;;;5053418;28;20039;-59
2023/05/07 05:11:12;;;;;;;;;;;;;;;;;;5055272;28;20307;-58
2023/05/07 05:13:37;;;;;;;;;;;;;;;;;;5052849;28;19921;-59
2023/05/07 05:16:03;;;;;;;;;;;;;;;;;;5054604;28;19974;-59
2023/05/07 05:18:29;;;;;;;;;;;;;;;;;;5071316;28;19951;-58
2023/05/07 05:20:55;;;;;;;;;;;;;;;;;;5073534;28;19913;-59
2023/05/07 05:23:21;;;;;;;;;;;;;;;;;;5063817;28;20008;-58
2023/05/07 05:25:47;;;;;;;;;;;;;;;;;;5051440;28;19972;-59
2023/05/07 05:28:13;;;;;;;;;;;;;;;;;;5051477;28;19987;-58
2023/05/07 05:30:39;;;;;;;;;;;;;;;;;;5054926;28;19930;-59
2023/05/07 05:33:05;;;;;;;;;;;;;;;;;;5054012;28;20384;-58
2023/05/07 05:35:31;;;;;;;;;;;;;;;;;;5052102;28;19923;-58
2023/05/07 05:37:57;;;;;;;;;;;;;;;;;;5056338;28;19915;-58
2023/05/07 05:40:23;;;;;;;;;;;;;;;;;;5051748;28;20301;-59
2023/05/07 05:42:49;;;;;;;;;;;;;;;;;;5053230;28;20000;-58
2023/05/07 05:45:15;;;;;;;;;;;;;;;;;;5056909;28;20384;-58
2023/05/07 05:47:41;;;;;;;;;;;;;;;;;;5069332;28;19944;-58
2023/05/07 05:50:07;;;;;;;;;;;;;;;;;;5050231;28;19951;-58
2023/05/07 05:52:33;;;;;;;;;;;;;;;;;;5052531;28;19913;-59
2023/05/07 05:54:58;;;;;;;;;;;;;;;;;;5052594;28;20327;-58
2023/05/07 05:57:24;;;;;;;;;;;;;;;;;;5052768;28;19973;-58
2023/05/07 05:59:50;;;;;;;;;;;;;;;;;;5054458;28;19952;-58
2023/05/07 06:02:16;;;;;;;;;;;;;;;;;;5053939;28;20380;-59
2023/05/07 06:04:42;;;;;;;;;;;;;;;;;;5053338;28;20675;-58
2023/05/07 06:07:08;;;;;;;;;;;;;;;;;;5062314;28;19940;-58
2023/05/07 06:09:34;;;;;;;;;;;;;;;;;;5050844;28;19962;-58
2023/05/07 06:12:00;;;;;;;;;;;;;;;;;;5051071;28;20384;-58
2023/05/07 06:14:26;;;;;;;;;;;;;;;;;;5049621;28;20058;-59
2023/05/07 06:16:52;;;;;;;;;;;;;;;;;;5060976;28;19943;-58
2023/05/07 06:19:22;;;;;;;;;;;;;;;;;;5072024;28;19916;-59
2023/05/07 06:21:48;;;;;;;;;;;;;;;;;;5048696;28;20491;-58
2023/05/07 06:24:14;;;;;;;;;;;;;;;;;;5049952;28;20008;-59
2023/05/07 06:26:40;;;;;;;;;;;;;;;;;;5051628;28;19939;-58
2023/05/07 06:29:06;;;;;;;;;;;;;;;;;;5054684;28;19913;-58
2023/05/07 06:31:32;;;;;;;;;;;;;;;;;;5050745;28;19955;-58
2023/05/07 06:33:58;;;;;;;;;;;;;;;;;;5051426;28;20008;-59
2023/05/07 06:36:24;;;;;;;;;;;;;;;;;;5051401;28;19924;-58
2023/05/07 06:38:50;;;;;;;;;;;;;;;;;;5061825;28;19916;-58
2023/05/07 06:41:16;;;;;;;;;;;;;;;;;;5048644;28;20003;-59
2023/05/07 06:43:42;;;;;;;;;;;;;;;;;;5049638;28;19927;-58
2023/05/07 06:46:08;;;;;;;;;;;;;;;;;;5044039;28;19921;-58
2023/05/07 06:48:34;;;;;;;;;;;;;;;;;;5053250;28;20520;-58
2023/05/07 06:51:00;;;;;;;;;;;;;;;;;;5057568;28;19916;-59
2023/05/07 06:53:26;;;;;;;;;;;;;;;;;;5047905;28;20015;-59
2023/05/07 06:55:52;;;;;;;;;;;;;;;;;;5048690;28;20043;-58
2023/05/07 06:58:18;;;;;;;;;;;;;;;;;;5050854;28;19996;-59
2023/05/07 07:00:45;;;;;;;;;;;;;;;;;;5048067;28;20019;-59
2023/05/07 07:03:11;;;;;;;;;;;;;;;;;;5050803;28;19909;-59
2023/05/07 07:05:37;;;;;;;;;;;;;;;;;;5050066;28;19913;-58
2023/05/07 07:08:03;;;;;;;;;;;;;;;;;;5050351;28;20431;-59
2023/05/07 07:10:29;;;;;;;;;;;;;;;;;;5049435;28;20382;-58
2023/05/07 07:12:55;;;;;;;;;;;;;;;;;;4993291;28;1679358;-59
2023/05/07 07:15:21;;;;;;;;;;;;;;;;;;5045235;28;20356;-58
2023/05/07 07:17:47;;;;;;;;;;;;;;;;;;5055374;28;19999;-58
2023/05/07 07:20:13;;;;;;;;;;;;;;;;;;5047522;28;20333;-58
2023/05/07 07:22:39;;;;;;;;;;;;;;;;;;5050202;28;20008;-63
2023/05/07 07:25:05;;;;;;;;;;;;;;;;;;5048862;28;19967;-59
2023/05/07 07:27:31;;;;;;;;;;;;;;;;;;5051914;28;19994;-59
2023/05/07 07:29:56;;;;;;;;;;;;;;;;;;5051140;28;19952;-58
2023/05/07 07:32:22;;;;;;;;;;;;;;;;;;5042095;28;19919;-58
2023/05/07 07:34:48;;;;;;;;;;;;;;;;;;5052180;28;19967;-58
2023/05/07 07:37:14;;;;;;;;;;;;;;;;;;5070191;28;19917;-58
2023/05/07 07:39:41;;;;;;;;;;;;;;;;;;5062816;28;19963;-58
2023/05/07 07:42:06;;;;;;;;;;;;;;;;;;5047364;28;19912;-58
2023/05/07 07:44:32;;;;;;;;;;;;;;;;;;5051923;28;20421;-59
2023/05/07 07:46:58;;;;;;;;;;;;;;;;;;5048306;28;20004;-59
2023/05/07 07:49:24;;;;;;;;;;;;;;;;;;5048483;28;19917;-59
2023/05/07 07:51:51;;;;;;;;;;;;;;;;;;5043181;28;20014;-58
2023/05/07 07:54:16;;;;;;;;;;;;;;;;;;5050109;28;19927;-58
2023/05/07 07:56:42;;;;;;;;;;;;;;;;;;5065533;28;20428;-59
2023/05/07 07:59:08;;;;;;;;;;;;;;;;;;5048983;28;19919;-58
2023/05/07 08:01:34;;;;;;;;;;;;;;;;;;5050548;28;19967;-59
2023/05/07 08:04:02;;;;;;;;;;;;;;;;;;5053104;28;19921;-58
2023/05/07 08:06:28;;;;;;;;;;;;;;;;;;5054534;28;19920;-58
2023/05/07 08:08:54;;;;;;;;;;;;;;;;;;5042542;28;19966;-59
2023/05/07 08:11:21;;;;;;;;;;;;;;;;;;5047557;28;20253;-58
2023/05/07 08:13:47;;;;;;;;;;;;;;;;;;5042761;28;20316;-58
2023/05/07 08:16:13;;;;;;;;;;;;;;;;;;5050905;28;19916;-58
2023/05/07 08:18:39;;;;;;;;;;;;;;;;;;5047437;28;20050;-59
2023/05/07 08:21:04;;;;;;;;;;;;;;;;;;5051428;28;19912;-59
2023/05/07 08:23:30;;;;;;;;;;;;;;;;;;5055580;28;19963;-59
2023/05/07 08:25:56;;;;;;;;;;;;;;;;;;5051153;28;19996;-58
2023/05/07 08:28:24;;;;;;;;;;;;;;;;;;5053273;28;20419;-59
2023/05/07 08:30:50;;;;;;;;;;;;;;;;;;5053386;28;19917;-58
2023/05/07 08:33:16;;;;;;;;;;;;;;;;;;5053150;28;20002;-58
2023/05/07 08:35:42;;;;;;;;;;;;;;;;;;5055758;28;19925;-59
2023/05/07 08:38:08;;;;;;;;;;;;;;;;;;5052089;28;19952;-57
2023/05/07 08:40:34;;;;;;;;;;;;;;;;;;5052985;28;19909;-58
2023/05/07 08:43:00;;;;;;;;;;;;;;;;;;5055541;28;19919;-58
2023/05/07 08:45:26;;;;;;;;;;;;;;;;;;5058784;28;20019;-57
2023/05/07 08:47:52;;;;;;;;;;;;;;;;;;5053660;28;20409;-58
2023/05/07 08:50:18;;;;;;;;;;;;;;;;;;5055152;28;19913;-59
2023/05/07 08:52:44;;;;;;;;;;;;;;;;;;5056567;28;19971;-58
2023/05/07 08:55:10;;;;;;;;;;;;;;;;;;5054142;28;19952;-58
2023/05/07 08:57:36;;;;;;;;;;;;;;;;;;5052921;28;19919;-57
2023/05/07 09:00:02;;;;;;;;;;;;;;;;;;5058478;28;20395;-55
2023/05/07 09:02:28;;;;;;;;;;;;;;;;;;5057390;28;19999;-58
2023/05/07 09:04:55;;;;;;;;;;;;;;;;;;5053565;28;20012;-58
2023/05/07 09:07:21;;;;;;;;;;;;;;;;;;5055591;28;19986;-59
2023/05/07 09:09:47;;;;;;;;;;;;;;;;;;5054997;28;20442;-58
2023/05/07 09:12:13;;;;;;;;;;;;;;;;;;5052616;28;19921;-59
2023/05/07 09:14:39;;;;;;;;;;;;;;;;;;5050934;28;20300;-59
2023/05/07 09:17:05;;;;;;;;;;;;;;;;;;5053776;28;19921;-58
2023/05/07 09:19:31;;;;;;;;;;;;;;;;;;5053373;28;19965;-58
2023/05/07 09:21:57;;;;;;;;;;;;;;;;;;5062742;28;19924;-58
2023/05/07 09:24:22;;;;;;;;;;;;;;;;;;5054218;28;20656;-58
2023/05/07 09:26:48;;;;;;;;;;;;;;;;;;5053408;28;19919;-59
2023/05/07 09:29:14;;;;;;;;;;;;;;;;;;5052385;28;19916;-58
2023/05/07 09:31:40;;;;;;;;;;;;;;;;;;5050621;28;20390;-59
2023/05/07 09:34:06;;;;;;;;;;;;;;;;;;5057573;28;19917;-58
2023/05/07 09:36:32;;;;;;;;;;;;;;;;;;5055585;28;19922;-58
2023/05/07 09:38:58;;;;;;;;;;;;;;;;;;5061864;28;19913;-59
2023/05/07 09:41:24;;;;;;;;;;;;;;;;;;5053110;28;19949;-59
2023/05/07 09:43:50;;;;;;;;;;;;;;;;;;5061337;28;19913;-58
2023/05/07 09:46:16;;;;;;;;;;;;;;;;;;5037853;28;19928;-58
2023/05/07 09:48:42;;;;;;;;;;;;;;;;;;5050789;28;19921;-59
2023/05/07 09:51:08;;;;;;;;;;;;;;;;;;5051907;28;20315;-58
2023/05/07 09:53:34;;;;;;;;;;;;;;;;;;5051566;28;20389;-58
2023/05/07 09:56:00;;;;;;;;;;;;;;;;;;5055162;28;20330;-58
2023/05/07 09:58:26;;;;;;;;;;;;;;;;;;5048709;28;19948;-59
2023/05/07 10:00:52;;;;;;;;;;;;;;;;;;5051673;28;19992;-59
2023/05/07 10:03:18;;;;;;;;;;;;;;;;;;5053231;28;19966;-59
2023/05/07 10:05:44;;;;;;;;;;;;;;;;;;5042782;28;19960;-59
2023/05/07 10:08:10;;;;;;;;;;;;;;;;;;5044234;28;20374;-59
2023/05/07 10:10:36;;;;;;;;;;;;;;;;;;5046567;28;20000;-59
2023/05/07 10:13:05;;;;;;;;;;;;;;;;;;5048516;28;19999;-59
2023/05/07 10:15:31;;;;;;;;;;;;;;;;;;5042576;28;19921;-58
2023/05/07 10:17:57;;;;;;;;;;;;;;;;;;5047514;28;20065;-58
2023/05/07 10:20:23;;;;;;;;;;;;;;;;;;5043083;28;20392;-58
2023/05/07 10:22:49;;;;;;;;;;;;;;;;;;5045299;28;19952;-59
2023/05/07 10:25:15;;;;;;;;;;;;;;;;;;5048545;28;20288;-59
2023/05/07 10:27:41;;;;;;;;;;;;;;;;;;5044687;28;19966;-59
2023/05/07 10:30:06;;;;;;;;;;;;;;;;;;5049623;28;19917;-58
2023/05/07 10:32:32;;;;;;;;;;;;;;;;;;5046268;28;19995;-59
2023/05/07 10:34:58;;;;;;;;;;;;;;;;;;5049448;28;19924;-59
2023/05/07 10:37:24;;;;;;;;;;;;;;;;;;5049623;28;19921;-58
2023/05/07 10:39:50;;;;;;;;;;;;;;;;;;5051504;28;19952;-58
2023/05/07 10:42:16;;;;;;;;;;;;;;;;;;5050569;28;20449;-59
2023/05/07 10:44:42;;;;;;;;;;;;;;;;;;5048624;28;19960;-57
2023/05/07 10:47:09;;;;;;;;;;;;;;;;;;5050404;28;20355;-58
2023/05/07 10:49:35;;;;;;;;;;;;;;;;;;5044579;28;19925;-58
2023/05/07 10:52:00;;;;;;;;;;;;;;;;;;5042363;28;19944;-57
2023/05/07 10:54:26;;;;;;;;;;;;;;;;;;5038105;28;20356;-58
2023/05/07 10:56:52;;;;;;;;;;;;;;;;;;5049968;28;19919;-57
2023/05/07 10:59:18;;;;;;;;;;;;;;;;;;5034188;28;19944;-58
2023/05/07 11:01:44;;;;;;;;;;;;;;;;;;5043757;28;19960;-58
2023/05/07 11:04:10;;;;;;;;;;;;;;;;;;5047261;28;19935;-58
2023/05/07 11:06:36;;;;;;;;;;;;;;;;;;5065861;28;20429;-57
2023/05/07 11:09:02;;;;;;;;;;;;;;;;;;5050185;28;19921;-57
2023/05/07 11:11:29;;;;;;;;;;;;;;;;;;5049253;28;19921;-57
2023/05/07 11:13:55;;;;;;;;;;;;;;;;;;5051027;28;19933;-57
2023/05/07 11:16:22;;;;;;;;;;;;;;;;;;5058277;28;19963;-57
2023/05/07 11:18:49;;;;;;;;;;;;;;;;;;5050503;28;19918;-58
2023/05/07 11:21:15;;;;;;;;;;;;;;;;;;5050473;28;19921;-57
2023/05/07 11:23:41;;;;;;;;;;;;;;;;;;5049689;28;20004;-58
2023/05/07 11:26:06;;;;;;;;;;;;;;;;;;5053457;28;20352;-58
2023/05/07 11:28:32;;;;;;;;;;;;;;;;;;5051954;28;19956;-57
2023/05/07 11:30:58;;;;;;;;;;;;;;;;;;5048231;28;19947;-58
2023/05/07 11:33:25;;;;;;;;;;;;;;;;;;5048034;28;19923;-58
2023/05/07 11:35:51;;;;;;;;;;;;;;;;;;5056090;28;19952;-58
2023/05/07 11:38:17;;;;;;;;;;;;;;;;;;5050963;28;19966;-58
2023/05/07 11:40:43;;;;;;;;;;;;;;;;;;5056633;28;19909;-58
2023/05/07 11:43:09;;;;;;;;;;;;;;;;;;5063154;28;20011;-56
2023/05/07 11:45:35;;;;;;;;;;;;;;;;;;5050717;28;19920;-56
2023/05/07 11:48:00;;;;;;;;;;;;;;;;;;5052387;28;19967;-58
2023/05/07 11:50:26;;;;;;;;;;;;;;;;;;5063832;28;19959;-57
2023/05/07 11:52:52;;;;;;;;;;;;;;;;;;5062713;28;19952;-57
2023/05/07 11:55:19;;;;;;;;;;;;;;;;;;5050950;28;20276;-57
2023/05/07 11:57:45;;;;;;;;;;;;;;;;;;5050669;28;19940;-58
2023/05/07 12:00:11;;;;;;;;;;;;;;;;;;5054525;28;19913;-58
2023/05/07 12:02:37;;;;;;;;;;;;;;;;;;5056224;28;19913;-57
2023/05/07 12:05:02;;;;;;;;;;;;;;;;;;5039650;28;19916;-58
2023/05/07 12:07:28;;;;;;;;;;;;;;;;;;5047655;28;20394;-58
2023/05/07 12:09:54;;;;;;;;;;;;;;;;;;5049566;28;20198;-58
2023/05/07 12:12:20;;;;;;;;;;;;;;;;;;5056750;28;19917;-57
2023/05/07 12:14:46;;;;;;;;;;;;;;;;;;5050789;28;19964;-56
2023/05/07 12:17:12;;;;;;;;;;;;;;;;;;5057859;28;19919;-59
2023/05/07 12:19:38;;;;;;;;;;;;;;;;;;5055471;28;20039;-58
2023/05/07 12:22:04;;;;;;;;;;;;;;;;;;5049671;28;19921;-58
2023/05/07 12:24:30;;;;;;;;;;;;;;;;;;5051392;28;19921;-57
2023/05/07 12:26:56;;;;;;;;;;;;;;;;;;5045602;28;19917;-58
2023/05/07 12:29:22;;;;;;;;;;;;;;;;;;5042466;28;20292;-58
2023/05/07 12:31:48;;;;;;;;;;;;;;;;;;5044322;28;20331;-57
2023/05/07 12:34:14;;;;;;;;;;;;;;;;;;5051289;28;19921;-57
2023/05/07 12:36:40;;;;;;;;;;;;;;;;;;5051037;28;20374;-57
2023/05/07 12:39:06;;;;;;;;;;;;;;;;;;5047118;28;20008;-57
2023/05/07 12:41:32;;;;;;;;;;;;;;;;;;5050601;28;20095;-57
2023/05/07 12:43:58;;;;;;;;;;;;;;;;;;5047814;28;19948;-57
2023/05/07 12:46:24;;;;;;;;;;;;;;;;;;5049244;28;19959;-56
2023/05/07 12:48:50;;;;;;;;;;;;;;;;;;5046595;28;20399;-57
2023/05/07 12:51:16;;;;;;;;;;;;;;;;;;5053617;28;19959;-58
2023/05/07 12:53:42;;;;;;;;;;;;;;;;;;5050868;28;19959;-57
2023/05/07 12:56:08;;;;;;;;;;;;;;;;;;5055373;28;19917;-55
2023/05/07 12:58:34;;;;;;;;;;;;;;;;;;5054797;28;19944;-56
2023/05/07 13:01:00;;;;;;;;;;;;;;;;;;5053800;28;19908;-59
2023/05/07 13:03:29;;;;;;;;;;;;;;;;;;5043849;28;20347;-59
2023/05/07 13:05:55;;;;;;;;;;;;;;;;;;5047450;28;19944;-57
2023/05/07 13:08:21;;;;;;;;;;;;;;;;;;5037281;28;19909;-57
2023/05/07 13:10:49;;;;;;;;;;;;;;;;;;5048456;28;19919;-55
2023/05/07 13:13:15;;;;;;;;;;;;;;;;;;5051364;28;19990;-57
2023/05/07 13:15:41;;;;;;;;;;;;;;;;;;5051003;28;19952;-57
2023/05/07 13:18:07;;;;;;;;;;;;;;;;;;5053484;28;19923;-57
2023/05/07 13:20:33;;;;;;;;;;;;;;;;;;5053519;28;20369;-58
2023/05/07 13:23:01;;;;;;;;;;;;;;;;;;5059125;28;19955;-57
2023/05/07 13:25:27;;;;;;;;;;;;;;;;;;5053829;28;20019;-57
2023/05/07 13:27:53;;;;;;;;;;;;;;;;;;5053853;28;19999;-56
2023/05/07 13:30:19;;;;;;;;;;;;;;;;;;5049367;28;19967;-57
2023/05/07 13:32:47;;;;;;;;;;;;;;;;;;5051887;28;20458;-58
2023/05/07 13:35:13;;;;;;;;;;;;;;;;;;5052668;28;20426;-58
2023/05/07 13:37:39;;;;;;;;;;;;;;;;;;5052708;28;19932;-57
2023/05/07 13:40:05;;;;;;;;;;;;;;;;;;5049158;28;20051;-57
2023/05/07 13:42:31;;;;;;;;;;;;;;;;;;5051898;28;20386;-58
2023/05/07 13:44:57;;;;;;;;;;;;;;;;;;5055967;28;19952;-59
2023/05/07 13:47:23;;;;;;;;;;;;;;;;;;5050946;28;19920;-57
2023/05/07 13:49:52;;;;;;;;;;;;;;;;;;5054618;28;19970;-57
2023/05/07 13:52:18;;;;;;;;;;;;;;;;;;5058905;28;19917;-58
2023/05/07 13:54:44;;;;;;;;;;;;;;;;;;5050866;28;19955;-58
2023/05/07 13:57:09;;;;;;;;;;;;;;;;;;5050690;28;19917;-57
2023/05/07 13:59:35;;;;;;;;;;;;;;;;;;5044301;28;20387;-57
2023/05/07 14:02:01;;;;;;;;;;;;;;;;;;5047242;28;19983;-57
2023/05/07 14:04:27;;;;;;;;;;;;;;;;;;5040443;28;20008;-58
2023/05/07 14:06:53;;;;;;;;;;;;;;;;;;5045573;28;19913;-57
2023/05/07 14:09:19;;;;;;;;;;;;;;;;;;5050136;28;20360;-58
2023/05/07 14:11:47;;;;;;;;;;;;;;;;;;5047164;28;19924;-57
2023/05/07 14:14:13;;;;;;;;;;;;;;;;;;5038283;28;19925;-58
2023/05/07 14:16:39;;;;;;;;;;;;;;;;;;5031622;28;19927;-58
2023/05/07 14:19:05;;;;;;;;;;;;;;;;;;5030815;28;19929;-57
2023/05/07 14:21:31;;;;;;;;;;;;;;;;;;5016699;28;19952;-58
2023/05/07 14:23:57;;;;;;;;;;;;;;;;;;5032833;28;19996;-57
2023/05/07 14:26:23;;;;;;;;;;;;;;;;;;5045933;28;20536;-57
2023/05/07 14:28:49;;;;;;;;;;;;;;;;;;5026231;28;19928;-57
2023/05/07 14:31:15;;;;;;;;;;;;;;;;;;5032030;28;20420;-57
2023/05/07 14:33:41;;;;;;;;;;;;;;;;;;5031809;28;19996;-57
2023/05/07 14:36:06;;;;;;;;;;;;;;;;;;5034206;28;19956;-57
2023/05/07 14:38:33;;;;;;;;;;;;;;;;;;5031667;28;19909;-57
2023/05/07 14:40:58;;;;;;;;;;;;;;;;;;5030448;28;20307;-57
2023/05/07 14:43:24;;;;;;;;;;;;;;;;;;5029724;28;19917;-56
2023/05/07 14:45:50;;;;;;;;;;;;;;;;;;5006119;28;19921;-57
2023/05/07 14:48:16;;;;;;;;;;;;;;;;;;5017442;28;20594;-57
2023/05/07 14:50:42;;;;;;;;;;;;;;;;;;5021640;28;20067;-58
2023/05/07 14:53:08;;;;;;;;;;;;;;;;;;5033604;28;19960;-57
2023/05/07 14:55:34;;;;;;;;;;;;;;;;;;5028892;28;19976;-57
2023/05/07 14:58:00;;;;;;;;;;;;;;;;;;5031623;28;20047;-57
2023/05/07 15:00:26;;;;;;;;;;;;;;;;;;5034225;28;19913;-57
2023/05/07 15:02:52;;;;;;;;;;;;;;;;;;5023223;28;19972;-57
2023/05/07 15:05:19;;;;;;;;;;;;;;;;;;5025334;28;19917;-57
2023/05/07 15:07:45;;;;;;;;;;;;;;;;;;5027743;28;19913;-57
2023/05/07 15:10:10;;;;;;;;;;;;;;;;;;5028888;28;19913;-57
2023/05/07 15:12:36;;;;;;;;;;;;;;;;;;5029521;28;19990;-57
2023/05/07 15:15:02;;;;;;;;;;;;;;;;;;5041826;28;19921;-57
2023/05/07 15:17:28;;;;;;;;;;;;;;;;;;5042973;28;20505;-57
2023/05/07 15:19:55;;;;;;;;;;;;;;;;;;5038377;28;19934;-57
2023/05/07 15:22:21;;;;;;;;;;;;;;;;;;5056957;28;19919;-57
2023/05/07 15:24:47;;;;;;;;;;;;;;;;;;5048946;28;20292;-56
2023/05/07 15:27:13;;;;;;;;;;;;;;;;;;5053778;28;19917;-57
2023/05/07 15:29:39;;;;;;;;;;;;;;;;;;5059154;28;19913;-57
2023/05/07 15:32:05;;;;;;;;;;;;;;;;;;5053117;28;20236;-57
2023/05/07 15:34:31;;;;;;;;;;;;;;;;;;5049533;28;20380;-57
2023/05/07 15:36:57;;;;;;;;;;;;;;;;;;5051365;28;20396;-57
2023/05/07 15:39:23;;;;;;;;;;;;;;;;;;5053947;28;19944;-56
2023/05/07 15:41:48;;;;;;;;;;;;;;;;;;5054742;28;19983;-57
2023/05/07 15:44:14;;;;;;;;;;;;;;;;;;5048839;28;19921;-57
2023/05/07 15:46:40;;;;;;;;;;;;;;;;;;5058735;28;19967;-57
2023/05/07 15:49:07;;;;;;;;;;;;;;;;;;5054631;28;19934;-57
2023/05/07 15:51:33;;;;;;;;;;;;;;;;;;5052917;28;20003;-58
2023/05/07 15:53:59;;;;;;;;;;;;;;;;;;5055886;28;20015;-56
2023/05/07 15:56:25;;;;;;;;;;;;;;;;;;5050793;28;20054;-57
2023/05/07 15:58:52;;;;;;;;;;;;;;;;;;5053359;28;19913;-57
2023/05/07 16:01:18;;;;;;;;;;;;;;;;;;5049471;28;19913;-57
2023/05/07 16:03:44;;;;;;;;;;;;;;;;;;5053375;28;19963;-56
2023/05/07 16:06:11;;;;;;;;;;;;;;;;;;5061157;28;19948;-57
2023/05/07 16:08:39;;;;;;;;;;;;;;;;;;5052806;28;20373;-57
2023/05/07 16:11:05;;;;;;;;;;;;;;;;;;5052768;28;20009;-59
2023/05/07 16:13:30;;;;;;;;;;;;;;;;;;5051339;28;20365;-56
2023/05/07 16:15:59;;;;;;;;;;;;;;;;;;5055084;28;19923;-59
2023/05/07 16:18:25;;;;;;;;;;;;;;;;;;5054259;28;19917;-59
2023/05/07 16:20:51;;;;;;;;;;;;;;;;;;5052167;28;19919;-55
2023/05/07 16:23:18;;;;;;;;;;;;;;;;;;5053867;28;19948;-58
2023/05/07 16:25:43;;;;;;;;;;;;;;;;;;5053734;28;19962;-59
2023/05/07 16:28:10;;;;;;;;;;;;;;;;;;5053804;28;20380;-58
2023/05/07 16:30:36;;;;;;;;;;;;;;;;;;5048859;28;20326;-58
2023/05/07 16:33:01;;;;;;;;;;;;;;;;;;5060628;28;19955;-57
2023/05/07 16:35:27;;;;;;;;;;;;;;;;;;5044203;28;19913;-53
2023/05/07 16:37:53;;;;;;;;;;;;;;;;;;5047008;28;20006;-57